createdAt,value
2019-02-21T00:01:51.169Z,20.70
2019-02-21T00:04:18.246Z,21.17
2019-02-21T00:06:45.427Z,22.40
2019-02-21T00:09:12.714Z,20.90
2019-02-21T00:11:40.301Z,20.90
2019-02-21T00:14:07.681Z,20.80
2019-02-21T00:16:35.221Z,21.73
2019-02-21T00:19:02.918Z,21.23
2019-02-21T00:21:32.490Z,22.20
2019-02-21T00:23:59.558Z,21.40
2019-02-21T00:26:27.030Z,21.03
2019-02-21T00:28:54.159Z,19.33
2019-02-21T00:31:21.221Z,20.63
2019-02-21T00:33:48.794Z,20.53
2019-02-21T00:36:16.204Z,21.00
2019-02-21T00:38:44.409Z,23.17
2019-02-21T00:41:11.505Z,23.60
2019-02-21T00:43:38.577Z,22.00
2019-02-21T00:46:05.638Z,22.50
2019-02-21T00:48:39.010Z,22.63
2019-02-21T00:51:42.966Z,19.90
2019-02-21T00:54:10.080Z,20.53
2019-02-21T00:56:37.146Z,17.53
2019-02-21T00:59:04.201Z,16.70
2019-02-21T01:01:31.301Z,22.17
2019-02-21T01:03:58.338Z,19.80
2019-02-21T01:06:25.381Z,21.33
2019-02-21T01:08:52.498Z,19.77
2019-02-21T01:11:19.670Z,19.93
2019-02-21T01:13:47.331Z,21.07
2019-02-21T01:16:14.453Z,20.33
2019-02-21T01:18:41.600Z,21.40
2019-02-21T01:21:08.731Z,21.53
2019-02-21T01:23:35.811Z,20.50
2019-02-21T01:26:02.879Z,22.37
2019-02-21T01:28:30.043Z,21.70
2019-02-21T01:30:57.444Z,22.27
2019-02-21T01:33:24.490Z,21.27
2019-02-21T01:35:51.553Z,22.10
2019-02-21T01:38:18.663Z,26.30
2019-02-21T01:40:45.866Z,25.10
2019-02-21T01:43:12.961Z,29.00
2019-02-21T01:45:40.053Z,29.47
2019-02-21T01:48:59.468Z,25.63
2019-02-21T01:51:26.286Z,33.20
2019-02-21T01:53:53.338Z,32.23
2019-02-21T01:56:20.415Z,35.17
2019-02-21T01:58:47.482Z,35.90
2019-02-21T02:01:14.542Z,34.97
2019-02-21T02:03:41.657Z,30.70
2019-02-21T02:06:09.036Z,30.40
2019-02-21T02:08:36.313Z,28.53
2019-02-21T02:11:03.399Z,30.50
2019-02-21T02:13:30.448Z,28.17
2019-02-21T02:15:57.480Z,33.47
2019-02-21T02:18:24.568Z,33.93
2019-02-21T02:20:57.007Z,32.07
2019-02-21T02:23:24.071Z,38.00
2019-02-21T02:25:51.286Z,38.77
2019-02-21T02:28:18.327Z,34.67
2019-02-21T02:30:45.375Z,39.37
2019-02-21T02:33:12.448Z,38.43
2019-02-21T02:35:39.507Z,37.50
2019-02-21T02:38:06.545Z,33.40
2019-02-21T02:40:33.627Z,34.57
2019-02-21T02:43:00.716Z,32.77
2019-02-21T02:45:27.761Z,31.73
2019-02-21T02:47:54.856Z,32.87
2019-02-21T02:50:23.929Z,30.57
2019-02-21T02:52:50.993Z,30.57
2019-02-21T02:55:18.235Z,32.37
2019-02-21T02:57:45.502Z,31.67
2019-02-21T03:00:13.663Z,31.23
2019-02-21T03:02:40.722Z,31.87
2019-02-21T03:05:07.809Z,31.80
2019-02-21T03:07:34.900Z,29.73
2019-02-21T03:10:02.165Z,31.00
2019-02-21T03:12:31.064Z,31.20
2019-02-21T03:14:58.134Z,29.90
2019-02-21T03:17:25.296Z,30.27
2019-02-21T03:19:52.389Z,30.07
2019-02-21T03:22:19.471Z,30.90
2019-02-21T03:24:47.188Z,29.60
2019-02-21T03:27:14.326Z,29.53
2019-02-21T03:29:41.402Z,29.03
2019-02-21T03:32:08.506Z,29.37
2019-02-21T03:34:35.587Z,30.27
2019-02-21T03:37:02.597Z,30.77
2019-02-21T03:39:29.665Z,30.33
2019-02-21T03:41:57.088Z,31.50
2019-02-21T03:44:24.148Z,30.90
2019-02-21T03:46:51.230Z,31.77
2019-02-21T03:49:19.498Z,31.13
2019-02-21T03:51:46.563Z,30.47
2019-02-21T03:54:13.643Z,30.53
2019-02-21T03:56:40.699Z,32.00
2019-02-21T03:59:20.241Z,31.47
2019-02-21T04:02:05.633Z,30.23
2019-02-21T04:04:31.429Z,32.37
2019-02-21T04:06:58.485Z,32.87
2019-02-21T04:09:25.516Z,31.63
2019-02-21T04:12:04.891Z,33.87
2019-02-21T04:14:33.371Z,33.87
2019-02-21T04:17:00.433Z,32.93
2019-02-21T04:19:27.516Z,31.90
2019-02-21T04:21:54.679Z,32.83
2019-02-21T04:24:21.728Z,33.27
2019-02-21T04:26:53.024Z,32.67
2019-02-21T04:29:20.136Z,32.33
2019-02-21T04:31:59.310Z,33.50
2019-02-21T04:34:26.399Z,33.33
2019-02-21T04:36:53.444Z,33.33
2019-02-21T04:39:20.485Z,33.93
2019-02-21T04:41:47.552Z,35.10
2019-02-21T04:44:14.605Z,35.23
2019-02-21T04:46:41.843Z,33.73
2019-02-21T04:49:08.896Z,34.40
2019-02-21T04:51:35.964Z,35.97
2019-02-21T04:54:03.035Z,35.43
2019-02-21T04:56:30.219Z,35.00
2019-02-21T04:58:57.267Z,36.23
2019-02-21T05:01:24.317Z,34.13
2019-02-21T05:03:51.412Z,37.23
2019-02-21T05:06:18.469Z,35.73
2019-02-21T05:08:45.614Z,34.90
2019-02-21T05:11:12.696Z,35.87
2019-02-21T05:13:39.828Z,37.60
2019-02-21T05:16:07.002Z,35.33
2019-02-21T05:18:34.099Z,35.53
2019-02-21T05:21:01.141Z,38.60
2019-02-21T05:23:28.271Z,39.47
2019-02-21T05:25:55.401Z,37.63
2019-02-21T05:32:49.664Z,36.77
2019-02-21T05:35:36.314Z,35.33
2019-02-21T05:38:10.300Z,35.80
2019-02-21T05:41:09.324Z,38.70
2019-02-21T05:44:08.035Z,40.00
2019-02-21T05:46:54.691Z,40.03
2019-02-21T05:49:44.485Z,40.40
2019-02-21T05:52:46.228Z,38.70
2019-02-21T05:55:22.142Z,40.80
2019-02-21T05:58:07.660Z,40.50
2019-02-21T06:00:57.405Z,41.57
2019-02-21T06:03:44.052Z,41.53
2019-02-21T06:06:32.825Z,41.37
2019-02-21T06:09:06.803Z,42.60
2019-02-21T06:12:04.365Z,42.63
2019-02-21T06:14:51.323Z,41.57
2019-02-21T06:17:34.353Z,45.37
2019-02-21T06:20:10.933Z,45.30
2019-02-21T06:22:48.671Z,44.80
2019-02-21T06:25:35.371Z,43.97
2019-02-21T06:28:23.222Z,43.93
2019-02-21T06:31:02.448Z,45.40
2019-02-21T06:33:29.514Z,45.60
2019-02-21T06:35:56.573Z,43.53
2019-02-21T06:38:23.679Z,46.57
2019-02-21T06:40:50.849Z,44.63
2019-02-21T06:43:17.931Z,48.97
2019-02-21T06:45:45.023Z,46.53
2019-02-21T06:48:12.183Z,45.93
2019-02-21T06:50:39.242Z,46.37
2019-02-21T06:53:06.394Z,46.57
2019-02-21T06:55:33.458Z,50.30
2019-02-21T06:58:00.561Z,47.67
2019-02-21T07:00:27.676Z,49.13
2019-02-21T07:02:54.785Z,47.63
2019-02-21T07:05:21.908Z,47.77
2019-02-21T07:07:49.904Z,50.47
2019-02-21T07:10:17.135Z,48.10
2019-02-21T07:12:46.255Z,49.27
2019-02-21T07:15:15.152Z,46.37
2019-02-21T07:17:49.239Z,46.00
2019-02-21T07:20:13.001Z,46.90
2019-02-21T07:22:40.333Z,47.23
2019-02-21T07:25:33.001Z,43.43
2019-02-21T07:28:10.983Z,44.43
2019-02-21T07:30:29.209Z,44.27
2019-02-21T07:32:56.311Z,43.40
2019-02-21T07:35:23.378Z,44.67
2019-02-21T07:37:50.483Z,42.60
2019-02-21T07:40:20.343Z,45.00
2019-02-21T07:42:48.136Z,43.97
2019-02-21T07:45:15.712Z,41.27
2019-02-21T07:47:43.149Z,43.90
2019-02-21T07:50:10.207Z,40.93
2019-02-21T07:52:37.282Z,43.27
2019-02-21T07:55:04.713Z,41.20
2019-02-21T07:57:31.781Z,41.57
2019-02-21T07:59:58.868Z,41.37
2019-02-21T08:02:32.039Z,41.80
2019-02-21T08:04:59.080Z,41.37
2019-02-21T08:07:26.485Z,42.43
2019-02-21T08:09:53.744Z,40.97
2019-02-21T08:12:23.159Z,41.60
2019-02-21T08:14:49.799Z,39.43
2019-02-21T08:17:16.921Z,40.67
2019-02-21T08:19:43.974Z,40.83
2019-02-21T08:22:11.025Z,38.63
2019-02-21T08:24:38.111Z,40.27
2019-02-21T08:27:05.167Z,38.67
2019-02-21T08:29:32.233Z,39.30
2019-02-21T08:31:59.307Z,39.53
2019-02-21T08:34:32.875Z,38.90
2019-02-21T08:37:04.255Z,41.07
2019-02-21T08:39:31.293Z,39.00
2019-02-21T08:41:58.512Z,38.23
2019-02-21T08:44:25.677Z,40.87
2019-02-21T08:47:06.263Z,36.27
2019-02-21T08:49:33.474Z,39.23
2019-02-21T08:52:00.514Z,37.80
2019-02-21T08:54:27.571Z,37.87
2019-02-21T08:56:54.648Z,40.70
2019-02-21T08:59:21.736Z,37.20
2019-02-21T09:01:48.817Z,36.47
2019-02-21T09:04:27.713Z,36.00
2019-02-21T09:06:54.236Z,38.40
2019-02-21T09:09:21.318Z,39.80
2019-02-21T09:11:48.399Z,38.13
2019-02-21T09:14:15.450Z,39.07
2019-02-21T09:16:42.545Z,37.27
2019-02-21T09:19:09.609Z,37.83
2019-02-21T09:21:36.657Z,37.60
2019-02-21T09:24:03.836Z,35.20
2019-02-21T09:26:30.895Z,38.37
2019-02-21T09:29:03.174Z,37.27
2019-02-21T09:31:30.289Z,39.53
2019-02-21T09:33:57.360Z,37.43
2019-02-21T09:36:24.426Z,35.87
2019-02-21T09:38:51.512Z,38.23
2019-02-21T09:41:18.663Z,36.53
2019-02-21T09:43:45.776Z,41.03
2019-02-21T09:46:13.011Z,40.37
2019-02-21T09:48:40.067Z,41.20
2019-02-21T09:51:07.192Z,44.20
2019-02-21T09:53:34.308Z,42.13
2019-02-21T09:56:01.401Z,39.83
2019-02-21T09:58:34.835Z,39.47
2019-02-21T10:01:01.910Z,40.00
2019-02-21T10:03:32.304Z,37.87
2019-02-21T10:05:59.367Z,37.33
2019-02-21T10:08:26.460Z,36.80
2019-02-21T10:10:53.654Z,37.27
2019-02-21T10:13:20.728Z,37.37
2019-02-21T10:15:48.034Z,38.37
2019-02-21T10:18:15.099Z,36.83
2019-02-21T10:20:42.144Z,38.13
2019-02-21T10:23:09.361Z,35.77
2019-02-21T10:25:36.425Z,38.13
2019-02-21T10:28:03.495Z,36.43
2019-02-21T10:30:30.578Z,37.20
2019-02-21T10:33:18.887Z,35.40
2019-02-21T10:35:46.000Z,34.20
2019-02-21T10:38:13.070Z,35.57
2019-02-21T10:40:40.127Z,35.73
2019-02-21T10:43:07.279Z,34.13
2019-02-21T10:45:34.438Z,33.60
2019-02-21T10:48:01.520Z,37.60
2019-02-21T10:50:28.633Z,33.70
2019-02-21T10:52:55.683Z,33.97
2019-02-21T10:55:22.749Z,34.07
2019-02-21T10:57:49.838Z,35.47
2019-02-21T11:00:19.550Z,33.13
2019-02-21T11:02:46.592Z,32.03
2019-02-21T11:05:13.855Z,30.10
2019-02-21T11:07:40.928Z,27.33
2019-02-21T11:10:08.295Z,28.40
2019-02-21T11:12:35.402Z,27.93
2019-02-21T11:15:03.397Z,28.37
2019-02-21T11:17:30.459Z,27.20
2019-02-21T11:19:57.569Z,27.50
2019-02-21T11:22:24.632Z,26.23
2019-02-21T11:24:52.111Z,26.30
2019-02-21T11:27:19.306Z,28.40
2019-02-21T11:29:46.359Z,26.93
2019-02-21T11:32:13.711Z,27.67
2019-02-21T11:34:40.748Z,27.47
2019-02-21T11:37:07.818Z,28.93
2019-02-21T11:39:34.905Z,28.73
2019-02-21T11:42:02.081Z,29.80
2019-02-21T11:44:29.279Z,29.83
2019-02-21T11:46:56.554Z,31.53
2019-02-21T11:49:23.595Z,31.13
2019-02-21T11:51:50.728Z,32.37
2019-02-21T11:54:26.462Z,29.30
2019-02-21T11:56:52.683Z,29.13
2019-02-21T11:59:19.779Z,29.87
2019-02-21T12:01:46.858Z,31.03
2019-02-21T12:04:13.903Z,30.13
2019-02-21T12:06:41.000Z,31.33
2019-02-21T12:09:10.263Z,32.27
2019-02-21T12:11:37.371Z,31.17
2019-02-21T12:14:04.423Z,31.63
2019-02-21T12:16:31.647Z,32.50
2019-02-21T12:19:01.883Z,32.47
2019-02-21T12:21:28.959Z,34.37
2019-02-21T12:23:57.031Z,36.93
2019-02-21T12:26:24.103Z,37.03
2019-02-21T12:28:51.198Z,36.50
2019-02-21T12:31:18.276Z,39.47
2019-02-21T12:33:45.348Z,36.93
2019-02-21T12:36:12.441Z,39.40
2019-02-21T12:38:39.523Z,37.27
2019-02-21T12:41:06.782Z,39.57
2019-02-21T12:43:34.062Z,38.43
2019-02-21T12:46:01.210Z,35.77
2019-02-21T12:48:28.488Z,37.67
2019-02-21T12:50:55.573Z,36.57
2019-02-21T12:53:22.696Z,35.57
2019-02-21T12:55:49.771Z,36.27
2019-02-21T12:58:16.936Z,35.27
2019-02-21T13:00:44.009Z,35.40
2019-02-21T13:03:11.068Z,34.43
2019-02-21T13:05:41.399Z,36.10
2019-02-21T13:08:07.195Z,33.30
2019-02-21T13:10:35.069Z,32.23
2019-02-21T13:13:02.210Z,34.07
2019-02-21T13:15:29.383Z,31.47
2019-02-21T13:17:56.493Z,31.80
2019-02-21T13:20:28.237Z,31.03
2019-02-21T13:22:55.292Z,33.37
2019-02-21T13:25:22.393Z,29.33
2019-02-21T13:27:49.494Z,30.97
2019-02-21T13:30:16.727Z,30.30
2019-02-21T13:32:43.980Z,28.37
2019-02-21T13:35:26.184Z,28.00
2019-02-21T13:37:53.234Z,29.17
2019-02-21T13:40:21.326Z,27.20
2019-02-21T13:42:50.658Z,27.33
2019-02-21T13:45:18.145Z,27.67
2019-02-21T13:47:45.378Z,27.37
2019-02-21T13:50:13.969Z,24.40
2019-02-21T13:52:41.049Z,26.70
2019-02-21T13:55:08.100Z,24.30
2019-02-21T13:57:38.221Z,22.03
2019-02-21T14:00:08.110Z,23.50
2019-02-21T14:02:35.269Z,21.80
2019-02-21T14:05:02.331Z,20.80
2019-02-21T14:07:29.377Z,20.00
2019-02-21T14:09:56.470Z,22.77
2019-02-21T14:12:26.365Z,22.50
2019-02-21T14:14:52.855Z,21.30
2019-02-21T14:17:20.054Z,22.23
2019-02-21T14:19:47.143Z,22.33
2019-02-21T14:22:14.331Z,21.17
2019-02-21T14:24:41.399Z,22.27
2019-02-21T14:27:08.964Z,20.00
2019-02-21T14:29:39.488Z,20.27
2019-02-21T14:32:05.149Z,19.63
2019-02-21T14:34:32.270Z,18.47
2019-02-21T14:37:01.213Z,19.30
2019-02-21T14:39:28.626Z,20.17
2019-02-21T14:41:55.760Z,19.97
2019-02-21T14:44:23.024Z,21.70
2019-02-21T14:46:50.373Z,18.50
2019-02-21T14:49:17.608Z,18.80
2019-02-21T14:51:44.671Z,19.07
2019-02-21T14:54:11.750Z,20.00
2019-02-21T14:56:38.827Z,20.07
2019-02-21T14:59:05.896Z,20.57
2019-02-21T15:01:32.961Z,20.03
2019-02-21T15:04:08.633Z,20.93
2019-02-21T15:06:35.905Z,20.47
2019-02-21T15:09:04.472Z,19.73
2019-02-21T15:11:31.578Z,19.97
2019-02-21T15:13:58.651Z,20.57
2019-02-21T15:16:25.720Z,20.70
2019-02-21T15:18:55.194Z,21.50
2019-02-21T15:21:21.780Z,22.73
2019-02-21T15:23:48.829Z,20.80
2019-02-21T15:26:16.272Z,22.07
2019-02-21T15:28:43.320Z,21.77
2019-02-21T15:31:10.363Z,22.17
2019-02-21T15:33:37.621Z,22.93
2019-02-21T15:36:04.649Z,21.93
2019-02-21T15:38:31.746Z,22.60
2019-02-21T15:41:37.317Z,21.87
2019-02-21T15:44:04.506Z,23.37
2019-02-21T15:46:31.642Z,22.53
2019-02-21T15:48:58.758Z,22.73
2019-02-21T15:52:07.511Z,23.33
2019-02-21T15:55:13.459Z,23.07
2019-02-21T15:57:40.466Z,23.07
2019-02-21T16:00:11.208Z,24.10
2019-02-21T16:02:38.417Z,22.23
2019-02-21T16:05:05.673Z,22.50
2019-02-21T16:07:32.759Z,23.17
2019-02-21T16:09:59.878Z,23.93
2019-02-21T16:12:27.049Z,24.80
2019-02-21T16:14:54.109Z,25.07
2019-02-21T16:17:21.217Z,23.87
2019-02-21T16:19:48.361Z,24.57
2019-02-21T16:22:15.445Z,24.07
2019-02-21T16:24:43.695Z,24.07
2019-02-21T16:27:10.972Z,24.57
2019-02-21T16:29:38.309Z,23.07
2019-02-21T16:32:05.451Z,25.13
2019-02-21T16:34:33.174Z,24.50
2019-02-21T16:37:02.648Z,26.30
2019-02-21T16:39:31.724Z,24.57
2019-02-21T16:41:58.860Z,26.07
2019-02-21T16:44:26.016Z,26.93
2019-02-21T16:46:54.295Z,26.30
2019-02-21T16:49:21.365Z,25.50
2019-02-21T16:51:48.471Z,25.97
2019-02-21T16:54:15.615Z,26.33
2019-02-21T16:56:42.709Z,26.53
2019-02-21T16:59:09.865Z,27.73
2019-02-21T17:01:37.043Z,28.43
2019-02-21T17:04:04.136Z,26.30
2019-02-21T17:06:31.234Z,28.13
2019-02-21T17:08:58.302Z,29.20
2019-02-21T17:11:25.872Z,28.70
2019-02-21T17:13:54.875Z,29.07
2019-02-21T17:16:22.034Z,29.37
2019-02-21T17:18:49.066Z,28.90
2019-02-21T17:21:16.276Z,29.13
2019-02-21T17:23:43.627Z,28.90
2019-02-21T17:26:10.718Z,30.30
2019-02-21T17:28:37.774Z,29.43
2019-02-21T17:31:04.829Z,29.57
2019-02-21T17:33:31.939Z,30.40
2019-02-21T17:35:59.032Z,29.43
2019-02-21T17:38:26.095Z,28.87
2019-02-21T17:40:53.242Z,29.90
2019-02-21T17:43:20.310Z,28.60
2019-02-21T17:45:47.377Z,29.03
2019-02-21T17:48:14.607Z,28.17
2019-02-21T17:50:41.692Z,27.63
2019-02-21T17:53:09.415Z,29.63
2019-02-21T17:55:37.528Z,29.37
2019-02-21T17:58:04.619Z,29.93
2019-02-21T18:00:34.613Z,29.27
2019-02-21T18:03:01.743Z,29.97
2019-02-21T18:05:28.862Z,28.90
2019-02-21T18:07:55.937Z,29.00
2019-02-21T18:10:23.124Z,29.07
2019-02-21T18:12:50.322Z,29.57
2019-02-21T18:15:17.469Z,29.70
2019-02-21T18:17:44.684Z,30.17
2019-02-21T18:20:12.246Z,30.50
2019-02-21T18:22:39.360Z,31.67
2019-02-21T18:25:09.836Z,28.20
2019-02-21T18:27:37.158Z,30.63
2019-02-21T18:30:24.109Z,31.03
2019-02-21T18:32:51.372Z,30.57
2019-02-21T18:35:27.000Z,32.27
2019-02-21T18:37:54.920Z,29.77
2019-02-21T18:40:22.143Z,31.23
2019-02-21T18:43:44.319Z,30.00
2019-02-21T18:46:26.942Z,29.87
2019-02-21T18:48:55.412Z,29.93
2019-02-21T18:51:23.396Z,29.30
2019-02-21T18:53:50.547Z,32.00
2019-02-21T18:56:17.690Z,33.03
2019-02-21T18:58:44.786Z,34.97
2019-02-21T19:01:11.894Z,34.17
2019-02-21T19:03:39.068Z,31.80
2019-02-21T19:06:06.315Z,30.20
2019-02-21T19:08:33.566Z,28.80
2019-02-21T19:11:00.742Z,29.27
2019-02-21T19:13:27.849Z,26.73
2019-02-21T19:15:56.089Z,26.57
2019-02-21T19:18:24.311Z,25.00
2019-02-21T19:20:51.553Z,24.93
2019-02-21T19:23:18.873Z,24.47
2019-02-21T19:25:46.519Z,25.47
2019-02-21T19:28:13.718Z,23.80
2019-02-21T19:30:44.285Z,23.50
2019-02-21T19:33:12.185Z,22.93
2019-02-21T19:35:39.333Z,24.70
2019-02-21T19:38:10.385Z,23.50
2019-02-21T19:40:35.740Z,23.17
2019-02-21T19:43:02.913Z,21.97
2019-02-21T19:45:30.018Z,22.17
2019-02-21T19:47:57.343Z,22.23
2019-02-21T19:50:25.963Z,22.43
2019-02-21T19:52:53.197Z,22.77
2019-02-21T19:55:20.281Z,23.07
2019-02-21T19:57:47.822Z,24.00
2019-02-21T20:00:17.099Z,24.33
2019-02-21T20:02:44.292Z,25.47
2019-02-21T20:05:46.564Z,26.60
2019-02-21T20:08:21.028Z,27.00
2019-02-21T20:10:42.730Z,28.10
2019-02-21T20:13:10.806Z,28.60
2019-02-21T20:15:38.336Z,28.60
2019-02-21T20:18:05.812Z,29.37
2019-02-21T20:20:32.862Z,30.60
2019-02-21T20:23:00.079Z,30.50
2019-02-21T20:25:27.251Z,31.90
2019-02-21T20:27:54.814Z,32.97
2019-02-21T20:30:24.542Z,32.00
2019-02-21T20:32:51.743Z,33.57
2019-02-21T20:35:18.849Z,33.87
2019-02-21T20:37:46.055Z,33.07
2019-02-21T20:40:14.241Z,32.70
2019-02-21T20:42:41.573Z,33.57
2019-02-21T20:45:08.951Z,32.17
2019-02-21T20:47:36.132Z,31.40
2019-02-21T20:50:04.022Z,34.77
2019-02-21T20:52:31.185Z,32.37
2019-02-21T20:54:58.360Z,33.13
2019-02-21T20:57:25.591Z,31.83
2019-02-21T20:59:52.669Z,32.70
2019-02-21T21:02:20.236Z,32.43
2019-02-21T21:04:47.580Z,33.33
2019-02-21T21:07:24.853Z,31.83
2019-02-21T21:09:45.201Z,33.97
2019-02-21T21:12:12.443Z,33.80
2019-02-21T21:14:39.512Z,33.93
2019-02-21T21:17:06.638Z,34.87
2019-02-21T21:19:33.755Z,36.63
2019-02-21T21:22:00.842Z,33.47
2019-02-21T21:24:48.126Z,35.33
2019-02-21T21:27:15.214Z,33.77
2019-02-21T21:30:41.937Z,33.70
2019-02-21T21:33:09.002Z,36.30
2019-02-21T21:35:36.115Z,36.90
2019-02-21T21:38:03.227Z,35.63
2019-02-21T21:40:30.396Z,39.57
2019-02-21T21:42:57.496Z,40.67
2019-02-21T21:45:24.595Z,42.97
2019-02-21T21:47:51.814Z,45.17
2019-02-21T21:50:19.137Z,45.07
2019-02-21T21:52:46.366Z,46.53
2019-02-21T21:55:13.644Z,48.20
2019-02-21T21:57:40.829Z,48.90
2019-02-21T22:00:44.825Z,50.43
2019-02-21T22:03:11.990Z,48.67
2019-02-21T22:05:39.070Z,49.33
2019-02-21T22:08:06.354Z,50.50
2019-02-21T22:10:33.565Z,52.60
2019-02-21T22:13:00.650Z,51.73
2019-02-21T22:15:27.769Z,53.83
2019-02-21T22:17:54.854Z,54.00
2019-02-21T22:20:21.929Z,55.83
2019-02-21T22:22:49.019Z,56.10
2019-02-21T22:25:16.108Z,55.73
2019-02-21T22:27:43.158Z,57.00
2019-02-21T22:30:12.049Z,56.93
2019-02-21T22:32:39.125Z,59.73
2019-02-21T22:35:06.392Z,58.70
2019-02-21T22:37:33.635Z,58.30
2019-02-21T22:40:00.701Z,63.50
2019-02-21T22:42:27.796Z,59.93
2019-02-21T22:44:54.876Z,62.57
2019-02-21T22:47:22.065Z,61.77
2019-02-21T22:49:49.196Z,62.57
2019-02-21T22:52:17.139Z,66.83
2019-02-21T22:54:44.477Z,66.60
2019-02-21T22:57:11.655Z,71.20
2019-02-21T22:59:38.767Z,68.53
2019-02-21T23:02:26.612Z,71.67
2019-02-21T23:05:26.527Z,71.20
2019-02-21T23:08:20.793Z,71.30
2019-02-21T23:10:47.944Z,72.77
2019-02-21T23:13:14.994Z,70.07
2019-02-21T23:15:42.092Z,72.27
2019-02-21T23:18:09.209Z,73.93
2019-02-21T23:20:36.298Z,77.13
2019-02-21T23:23:03.383Z,78.23
2019-02-21T23:25:30.540Z,76.33
2019-02-21T23:27:57.731Z,75.47
2019-02-21T23:30:24.793Z,76.33
2019-02-21T23:32:51.923Z,80.67
2019-02-21T23:35:20.319Z,79.67
2019-02-21T23:37:47.393Z,84.23
2019-02-21T23:40:14.976Z,82.97
2019-02-21T23:42:42.064Z,85.73
2019-02-21T23:45:09.122Z,86.97
2019-02-21T23:47:36.289Z,86.37
2019-02-21T23:50:03.818Z,85.90
2019-02-21T23:52:30.903Z,86.40
2019-02-21T23:54:58.073Z,85.03
2019-02-21T23:57:25.131Z,86.13
2019-02-21T23:59:52.207Z,86.33
